Main page
METAR-TAF:

METAR-TAF

Airports :

Cardiff Airport

Cardiff, Wales

latitude: 51-24N, longitude: 003-21W, elevation: 67 m

Current weather observation

The report was made 40 minutes ago, at 10:20 UTC
Wind 8 kt from the South, varying between South/Southeast and South/Southwest
Temperature 14°C
Humidity 77%
Pressure 994 hPa
Visibility 10 km or more

METAR: EGFF 091020Z AUTO 18008KT 150V210 9999 NCD 14/10 Q0994

Time: 12:00 (11:00 UTC)

Forecast

The report was made 5 hours and 55 minutes ago, at 05:05 UTC
Forecast valid from 09 at 06 UTC to 10 at 06 UTC
Wind 9 kt from the South
Visibility 10 km or more
Scattered clouds at a height of 2500 ft
Probability 30% :
Temporary
from 10 at 03 UTC to 10 at 06 UTC
Visibility: 7000 m
Broken clouds at a height of 1400 ft
rain showers

TAF: EGFF 090505Z 0906/1006 17009KT 9999 SCT025 PROB30 TEMPO 1003/1006 7000 SHRA BKN014

Weather observations and forecasts of more than 4000 airports (METAR and TAF reports).

The available stations are represented by yellow and red dots on the map.

Hover mouse over dot to see the name of the station.

Then click to see weather observations and forecasts.

To change the map : click on the green buttons with a black cross to zoom in, on the green button with a dash to zoom out, or on the green arrows for adjacent maps.


METAR-TAF: